createdAt,value
2022-12-16T00:01:08.455Z,23.60
2022-12-16T00:03:36.653Z,21.80
2022-12-16T00:06:04.996Z,25.97
2022-12-16T00:08:35.917Z,24.10
2022-12-16T00:11:03.248Z,22.53
2022-12-16T00:13:32.127Z,21.97
2022-12-16T00:15:59.915Z,23.13
2022-12-16T00:18:27.280Z,25.87
2022-12-16T00:20:55.335Z,26.33
2022-12-16T00:23:22.763Z,25.33
2022-12-16T00:25:50.458Z,24.93
2022-12-16T00:28:22.943Z,22.77
2022-12-16T00:30:51.008Z,25.13
2022-12-16T00:33:19.667Z,24.40
2022-12-16T00:35:47.172Z,23.20
2022-12-16T00:38:14.611Z,22.97
2022-12-16T00:40:41.803Z,26.23
2022-12-16T00:43:08.976Z,25.70
2022-12-16T00:45:36.406Z,25.37
2022-12-16T00:48:03.551Z,23.73
2022-12-16T00:50:30.671Z,24.33
2022-12-16T00:52:57.800Z,22.80
2022-12-16T00:55:26.285Z,25.27
2022-12-16T00:57:53.405Z,23.20
2022-12-16T01:00:22.488Z,21.33
2022-12-16T01:02:50.687Z,20.60
2022-12-16T01:05:20.723Z,20.93
2022-12-16T01:07:48.513Z,19.73
2022-12-16T01:10:15.951Z,20.70
2022-12-16T01:12:43.114Z,21.97
2022-12-16T01:15:12.595Z,20.70
2022-12-16T01:17:41.214Z,20.57
2022-12-16T01:20:09.165Z,21.60
2022-12-16T01:22:36.707Z,21.97
2022-12-16T01:25:04.603Z,19.73
2022-12-16T01:27:31.717Z,20.20
2022-12-16T01:29:58.810Z,18.57
2022-12-16T01:32:25.898Z,20.03
2022-12-16T01:34:55.062Z,20.27
2022-12-16T01:37:23.558Z,19.03
2022-12-16T01:39:51.007Z,21.27
2022-12-16T01:42:21.494Z,18.63
2022-12-16T01:44:52.053Z,22.97
2022-12-16T01:47:30.935Z,20.20
2022-12-16T01:50:06.700Z,21.30
2022-12-16T01:52:34.757Z,20.53
2022-12-16T01:55:03.970Z,19.03
2022-12-16T01:57:34.428Z,20.87
2022-12-16T02:00:02.066Z,20.23
2022-12-16T02:02:29.440Z,21.73
2022-12-16T02:05:15.408Z,20.33
2022-12-16T02:07:42.530Z,19.07
2022-12-16T02:10:11.887Z,18.47
2022-12-16T02:12:47.191Z,19.20
2022-12-16T02:15:20.564Z,19.40
2022-12-16T02:17:53.623Z,20.57
2022-12-16T02:20:28.986Z,17.20
2022-12-16T02:23:14.847Z,20.83
2022-12-16T02:25:55.869Z,17.67
2022-12-16T02:28:36.066Z,18.10
2022-12-16T02:31:09.436Z,19.13
2022-12-16T02:33:36.593Z,18.83
2022-12-16T02:36:03.744Z,15.77
2022-12-16T02:38:36.678Z,17.13
2022-12-16T02:41:05.841Z,19.33
2022-12-16T02:43:51.632Z,18.77
2022-12-16T02:46:20.362Z,17.50
2022-12-16T02:48:47.539Z,18.07
2022-12-16T02:51:14.967Z,17.70
2022-12-16T02:53:42.566Z,19.47
2022-12-16T02:56:18.825Z,16.17
2022-12-16T02:59:06.178Z,17.33
2022-12-16T03:01:52.341Z,16.07
2022-12-16T03:04:33.503Z,17.10
2022-12-16T03:07:01.281Z,15.90
2022-12-16T03:09:30.849Z,16.67
2022-12-16T03:11:58.441Z,16.90
2022-12-16T03:14:28.457Z,16.53
2022-12-16T03:16:56.600Z,18.03
2022-12-16T03:19:25.105Z,16.60
2022-12-16T03:22:09.540Z,16.83
2022-12-16T03:24:36.929Z,14.80
2022-12-16T03:27:21.613Z,18.40
2022-12-16T03:29:54.673Z,17.10
2022-12-16T03:32:42.035Z,19.90
2022-12-16T03:35:09.113Z,18.33
2022-12-16T03:37:37.463Z,16.43
2022-12-16T03:40:06.646Z,16.23
2022-12-16T03:42:34.324Z,16.33
2022-12-16T03:45:01.460Z,17.53
2022-12-16T03:47:29.422Z,17.03
2022-12-16T03:49:56.531Z,15.60
2022-12-16T03:52:23.655Z,16.57
2022-12-16T03:54:50.786Z,17.50
2022-12-16T03:57:17.932Z,16.00
2022-12-16T03:59:45.062Z,15.67
2022-12-16T04:02:12.344Z,17.33
2022-12-16T04:04:39.557Z,15.40
2022-12-16T04:07:21.746Z,15.57
2022-12-16T04:09:49.551Z,16.83
2022-12-16T04:12:35.336Z,18.30
2022-12-16T04:15:38.308Z,15.57
2022-12-16T04:18:25.045Z,13.80
2022-12-16T04:21:12.058Z,18.77
2022-12-16T04:24:02.381Z,15.70
2022-12-16T04:26:29.522Z,17.50
2022-12-16T04:28:56.654Z,15.60
2022-12-16T04:31:23.808Z,15.50
2022-12-16T04:34:09.518Z,15.77
2022-12-16T04:36:55.595Z,15.80
2022-12-16T04:39:41.548Z,17.30
2022-12-16T04:42:27.419Z,15.83
2022-12-16T04:45:13.579Z,17.03
2022-12-16T04:47:59.345Z,17.20
2022-12-16T04:50:45.306Z,16.17
2022-12-16T04:53:31.494Z,18.00
2022-12-16T04:56:17.604Z,16.93
2022-12-16T04:59:03.558Z,15.27
2022-12-16T05:01:49.648Z,16.70
2022-12-16T05:04:35.506Z,18.47
2022-12-16T05:07:21.491Z,17.73
2022-12-16T05:10:07.487Z,17.87
2022-12-16T05:12:53.501Z,17.67
2022-12-16T05:15:39.480Z,18.17
2022-12-16T05:18:32.737Z,16.23
2022-12-16T05:21:19.322Z,19.33
2022-12-16T05:24:05.318Z,17.83
2022-12-16T05:26:51.236Z,17.30
2022-12-16T05:29:37.198Z,18.57
2022-12-16T05:32:23.422Z,16.43
2022-12-16T05:35:09.458Z,19.20
2022-12-16T05:37:55.381Z,17.20
2022-12-16T05:40:41.384Z,15.73
2022-12-16T05:43:27.387Z,18.03
2022-12-16T05:46:13.339Z,18.17
2022-12-16T05:48:59.013Z,16.80
2022-12-16T05:51:44.894Z,17.87
2022-12-16T05:54:30.967Z,18.73
2022-12-16T05:57:16.529Z,18.30
2022-12-16T06:00:02.374Z,23.17
2022-12-16T06:02:48.509Z,19.10
2022-12-16T06:05:34.347Z,17.07
2022-12-16T06:08:20.300Z,17.27
2022-12-16T06:11:06.353Z,18.80
2022-12-16T06:13:52.276Z,16.87
2022-12-16T06:16:38.267Z,17.73
2022-12-16T06:19:23.976Z,18.33
2022-12-16T06:22:10.003Z,17.33
2022-12-16T06:24:55.899Z,17.83
2022-12-16T06:27:41.693Z,19.07
2022-12-16T06:30:27.716Z,20.23
2022-12-16T06:33:13.590Z,19.70
2022-12-16T06:35:59.541Z,19.13
2022-12-16T06:38:45.418Z,19.70
2022-12-16T06:41:31.245Z,18.07
2022-12-16T06:44:17.138Z,17.37
2022-12-16T06:47:03.063Z,20.30
2022-12-16T06:49:49.032Z,23.47
2022-12-16T06:52:35.155Z,23.63
2022-12-16T06:55:21.070Z,25.20
2022-12-16T06:58:10.079Z,27.27
2022-12-16T07:00:56.065Z,24.30
2022-12-16T07:03:42.283Z,26.27
2022-12-16T07:06:28.298Z,32.50
2022-12-16T07:09:14.335Z,30.50
2022-12-16T07:12:00.254Z,28.23
2022-12-16T07:14:46.252Z,29.53
2022-12-16T07:17:39.851Z,30.50
2022-12-16T07:20:25.839Z,25.27
2022-12-16T07:23:17.777Z,22.17
2022-12-16T07:26:05.460Z,27.47
2022-12-16T07:28:51.493Z,25.33
2022-12-16T07:31:37.653Z,29.80
2022-12-16T07:34:23.306Z,31.60
2022-12-16T07:37:09.324Z,27.93
2022-12-16T07:39:55.635Z,26.07
2022-12-16T07:42:41.927Z,26.13
2022-12-16T07:45:28.518Z,26.80
2022-12-16T07:48:14.591Z,25.20
2022-12-16T07:51:00.565Z,28.40
2022-12-16T07:53:46.654Z,23.23
2022-12-16T07:56:32.571Z,23.90
2022-12-16T07:59:18.831Z,22.10
2022-12-16T08:02:04.780Z,27.30
2022-12-16T08:04:50.552Z,24.00
2022-12-16T08:07:36.891Z,22.40
2022-12-16T08:10:22.747Z,24.00
2022-12-16T08:13:08.730Z,22.10
2022-12-16T08:15:55.096Z,25.23
2022-12-16T08:18:41.939Z,24.30
2022-12-16T08:21:27.744Z,27.67
2022-12-16T08:24:13.712Z,27.90
2022-12-16T08:26:59.683Z,24.30
2022-12-16T08:29:45.945Z,28.13
2022-12-16T08:32:32.437Z,27.67
2022-12-16T08:35:18.387Z,23.60
2022-12-16T08:38:08.872Z,24.07
2022-12-16T08:40:56.468Z,22.57
2022-12-16T08:43:42.378Z,22.93
2022-12-16T08:46:28.391Z,22.93
2022-12-16T08:49:17.039Z,25.97
2022-12-16T08:52:02.760Z,26.23
2022-12-16T08:54:48.587Z,26.83
2022-12-16T08:57:35.388Z,29.27
2022-12-16T09:00:21.347Z,25.17
2022-12-16T09:03:07.526Z,26.27
2022-12-16T09:05:53.706Z,28.20
2022-12-16T09:08:39.547Z,28.60
2022-12-16T09:11:25.573Z,24.17
2022-12-16T09:14:11.617Z,28.73
2022-12-16T09:16:57.763Z,23.87
2022-12-16T09:19:43.728Z,23.53
2022-12-16T09:22:29.709Z,23.00
2022-12-16T09:25:15.673Z,22.20
2022-12-16T09:28:18.294Z,27.80
2022-12-16T09:31:04.027Z,25.47
2022-12-16T09:33:50.156Z,25.57
2022-12-16T09:36:36.093Z,21.60
2022-12-16T09:39:22.074Z,24.27
2022-12-16T09:42:25.010Z,24.13
2022-12-16T09:45:10.941Z,20.87
2022-12-16T09:48:08.636Z,23.50
2022-12-16T09:50:56.708Z,26.40
2022-12-16T09:53:42.678Z,23.50
2022-12-16T09:56:35.154Z,20.23
2022-12-16T09:59:22.273Z,18.27
2022-12-16T10:02:09.844Z,20.50
2022-12-16T10:04:55.597Z,20.10
2022-12-16T10:07:42.439Z,26.00
2022-12-16T10:10:57.923Z,20.53
2022-12-16T10:13:49.334Z,17.60
2022-12-16T10:16:35.425Z,19.67
2022-12-16T10:19:30.508Z,22.53
2022-12-16T10:22:19.026Z,24.57
2022-12-16T10:25:25.422Z,25.83
2022-12-16T10:28:12.993Z,22.10
2022-12-16T10:30:58.969Z,22.93
2022-12-16T10:33:46.973Z,23.87
2022-12-16T10:36:35.043Z,23.27
2022-12-16T10:39:22.677Z,32.37
2022-12-16T10:42:11.046Z,31.33
2022-12-16T10:45:09.902Z,32.03
2022-12-16T10:47:55.822Z,25.67
2022-12-16T10:50:42.314Z,23.03
2022-12-16T10:53:34.019Z,22.63
2022-12-16T10:56:32.247Z,25.27
2022-12-16T10:59:20.185Z,23.97
2022-12-16T11:02:22.818Z,26.40
2022-12-16T11:05:09.335Z,27.60
2022-12-16T11:07:57.738Z,28.67
2022-12-16T11:10:48.319Z,29.70
2022-12-16T11:13:38.339Z,24.37
2022-12-16T11:16:25.977Z,23.97
2022-12-16T11:19:11.672Z,41.67
2022-12-16T11:21:57.709Z,27.10
2022-12-16T11:24:43.664Z,22.47
2022-12-16T11:27:35.146Z,26.37
2022-12-16T11:30:21.946Z,29.40
2022-12-16T11:33:37.761Z,28.00
2022-12-16T11:36:30.043Z,27.73
2022-12-16T11:39:16.047Z,17.20
2022-12-16T11:42:06.999Z,19.73
2022-12-16T11:44:55.770Z,24.80
2022-12-16T11:47:41.724Z,19.57
2022-12-16T11:50:33.317Z,19.70
2022-12-16T11:53:19.809Z,21.50
2022-12-16T11:56:15.472Z,22.97
2022-12-16T11:59:05.715Z,18.93
2022-12-16T12:01:57.342Z,25.03
2022-12-16T12:04:43.140Z,30.43
2022-12-16T12:07:29.023Z,24.87
2022-12-16T12:10:23.520Z,24.57
2022-12-16T12:13:16.096Z,19.03
2022-12-16T12:16:08.585Z,19.23
2022-12-16T12:19:06.983Z,20.40
2022-12-16T12:22:04.641Z,21.33
2022-12-16T12:25:05.376Z,22.33
2022-12-16T12:27:51.207Z,20.87
2022-12-16T12:30:40.357Z,20.37
2022-12-16T12:33:32.310Z,19.50
2022-12-16T12:36:26.424Z,21.13
2022-12-16T12:39:20.965Z,21.77
2022-12-16T12:42:09.398Z,22.00
2022-12-16T12:45:19.982Z,21.93
2022-12-16T12:48:11.399Z,18.40
2022-12-16T12:51:13.707Z,18.53
2022-12-16T12:54:08.546Z,19.53
2022-12-16T12:57:02.531Z,16.83
2022-12-16T13:00:08.462Z,17.10
2022-12-16T13:03:03.254Z,16.37
2022-12-16T13:05:51.213Z,17.17
2022-12-16T13:08:54.948Z,17.33
2022-12-16T13:11:43.033Z,16.97
2022-12-16T13:14:47.554Z,17.40
2022-12-16T13:17:33.357Z,21.87
2022-12-16T13:20:19.476Z,21.20
2022-12-16T13:23:05.895Z,19.10
2022-12-16T13:25:53.938Z,19.37
2022-12-16T13:28:41.094Z,17.90
2022-12-16T13:31:27.527Z,17.30
2022-12-16T13:34:14.114Z,19.53
2022-12-16T13:37:00.126Z,21.70
2022-12-16T13:39:46.558Z,23.80
2022-12-16T13:42:51.068Z,21.67
2022-12-16T13:45:51.519Z,20.13
2022-12-16T13:48:57.770Z,19.10
2022-12-16T13:51:58.302Z,20.53
2022-12-16T13:54:48.627Z,19.40
2022-12-16T13:57:35.027Z,22.73
2022-12-16T14:00:22.473Z,22.13
2022-12-16T14:03:09.975Z,22.30
2022-12-16T14:05:56.875Z,21.47
2022-12-16T14:08:57.597Z,21.97
2022-12-16T14:12:09.282Z,19.53
2022-12-16T14:14:58.338Z,21.67
2022-12-16T14:17:48.207Z,21.37
2022-12-16T14:20:40.460Z,22.23
2022-12-16T14:23:56.449Z,23.23
2022-12-16T14:26:43.173Z,25.80
2022-12-16T14:29:38.711Z,21.70
2022-12-16T14:32:37.554Z,23.30
2022-12-16T14:35:23.615Z,26.43
2022-12-16T14:38:09.611Z,29.30
2022-12-16T14:40:55.565Z,26.10
2022-12-16T14:43:42.532Z,24.60
2022-12-16T14:46:46.451Z,23.30
2022-12-16T14:49:48.670Z,20.77
2022-12-16T14:52:37.072Z,22.63
2022-12-16T14:55:36.920Z,19.63
2022-12-16T14:58:48.399Z,21.37
2022-12-16T15:01:36.535Z,22.10
2022-12-16T15:04:25.204Z,21.47
2022-12-16T15:07:12.296Z,20.10
2022-12-16T15:10:03.163Z,20.00
2022-12-16T15:12:51.295Z,21.83
2022-12-16T15:16:00.162Z,21.53
2022-12-16T15:18:52.322Z,23.60
2022-12-16T15:21:38.243Z,23.43
2022-12-16T15:24:35.464Z,20.57
2022-12-16T15:27:33.097Z,20.20
2022-12-16T15:30:19.025Z,20.73
2022-12-16T15:33:12.102Z,23.50
2022-12-16T15:35:58.084Z,26.57
2022-12-16T15:38:47.525Z,25.30
2022-12-16T15:41:41.119Z,22.70
2022-12-16T15:44:33.700Z,24.47
2022-12-16T15:47:19.847Z,24.67
2022-12-16T15:50:06.350Z,21.27
2022-12-16T15:52:57.969Z,23.50
2022-12-16T15:55:43.849Z,28.23
2022-12-16T15:58:33.615Z,26.90
2022-12-16T16:01:20.225Z,28.07
2022-12-16T16:04:10.083Z,22.60
2022-12-16T16:06:55.852Z,25.20
2022-12-16T16:09:42.784Z,24.33
2022-12-16T16:12:32.407Z,23.80
2022-12-16T16:15:18.359Z,22.73
2022-12-16T16:18:04.492Z,26.77
2022-12-16T16:20:50.642Z,21.73
2022-12-16T16:23:36.815Z,22.60
2022-12-16T16:26:23.023Z,24.10
2022-12-16T16:29:08.837Z,22.47
2022-12-16T16:31:58.221Z,24.93
2022-12-16T16:34:46.684Z,25.67
2022-12-16T16:37:36.139Z,24.20
2022-12-16T16:40:32.175Z,27.30
2022-12-16T16:43:18.015Z,28.13
2022-12-16T16:46:11.636Z,26.83
2022-12-16T16:48:57.813Z,24.53
2022-12-16T16:51:43.855Z,24.27
2022-12-16T16:54:29.853Z,28.83
2022-12-16T16:57:16.193Z,27.17
2022-12-16T17:00:02.189Z,27.37
2022-12-16T17:02:48.137Z,26.20
2022-12-16T17:05:34.027Z,28.37
2022-12-16T17:08:19.993Z,32.53
2022-12-16T17:11:06.849Z,27.83
2022-12-16T17:13:52.794Z,28.77
2022-12-16T17:16:41.906Z,34.20
2022-12-16T17:19:27.597Z,27.77
2022-12-16T17:22:13.614Z,28.60
2022-12-16T17:24:59.721Z,28.43
2022-12-16T17:27:45.797Z,27.07
2022-12-16T17:30:47.051Z,29.70
2022-12-16T17:33:34.032Z,30.00
2022-12-16T17:36:20.153Z,35.10
2022-12-16T17:39:06.078Z,32.97
2022-12-16T17:41:52.524Z,29.27
2022-12-16T17:44:38.500Z,32.40
2022-12-16T17:47:24.347Z,32.27
2022-12-16T17:50:10.279Z,43.20
2022-12-16T17:52:56.246Z,62.13
2022-12-16T17:55:42.155Z,33.77
2022-12-16T17:58:32.642Z,33.87
2022-12-16T18:01:22.422Z,35.00
2022-12-16T18:04:08.398Z,33.40
2022-12-16T18:06:54.198Z,37.70
2022-12-16T18:09:40.254Z,32.33
2022-12-16T18:12:26.132Z,33.43
2022-12-16T18:15:12.140Z,29.43
2022-12-16T18:17:58.149Z,30.93
2022-12-16T18:20:44.015Z,30.47
2022-12-16T18:23:30.161Z,28.77
2022-12-16T18:26:17.064Z,27.40
2022-12-16T18:29:03.089Z,25.27
2022-12-16T18:31:49.262Z,27.57
2022-12-16T18:34:34.877Z,32.47
2022-12-16T18:37:20.789Z,32.40
2022-12-16T18:40:06.582Z,31.43
2022-12-16T18:42:52.603Z,30.70
2022-12-16T18:45:38.683Z,32.83
2022-12-16T18:48:24.689Z,28.70
2022-12-16T18:51:14.302Z,29.30
2022-12-16T18:54:00.515Z,35.57
2022-12-16T18:56:46.505Z,31.27
2022-12-16T18:59:32.456Z,35.20
2022-12-16T19:02:26.116Z,31.30
2022-12-16T19:05:12.158Z,30.50
2022-12-16T19:07:58.139Z,30.80
2022-12-16T19:10:44.044Z,36.40
2022-12-16T19:13:33.609Z,33.23
2022-12-16T19:16:19.586Z,35.57
2022-12-16T19:19:05.304Z,29.73
2022-12-16T19:21:52.144Z,32.00
2022-12-16T19:24:41.993Z,29.80
2022-12-16T19:27:27.990Z,31.13
2022-12-16T19:30:13.532Z,35.03
2022-12-16T19:32:59.474Z,36.13
2022-12-16T19:35:45.359Z,33.13
2022-12-16T19:38:32.310Z,34.27
2022-12-16T19:41:18.248Z,36.50
2022-12-16T19:44:06.461Z,40.80
2022-12-16T19:46:55.904Z,44.83
2022-12-16T19:49:44.461Z,41.40
2022-12-16T19:52:30.701Z,42.63
2022-12-16T19:58:22.293Z,59.20
2022-12-16T20:01:08.418Z,56.33
2022-12-16T20:07:01.006Z,66.70
2022-12-16T20:09:47.073Z,58.83
2022-12-16T20:12:33.296Z,50.00
2022-12-16T20:15:19.023Z,51.97
2022-12-16T20:18:04.984Z,65.83
2022-12-16T20:20:51.845Z,60.07
2022-12-16T20:23:37.824Z,53.57
2022-12-16T20:26:23.613Z,57.23
2022-12-16T20:29:09.721Z,46.90
2022-12-16T20:31:55.814Z,54.33
2022-12-16T20:34:42.238Z,53.43
2022-12-16T20:37:28.098Z,55.10
2022-12-16T20:40:14.059Z,39.20
2022-12-16T20:43:00.130Z,43.00
2022-12-16T20:45:46.099Z,39.50
2022-12-16T20:48:35.291Z,45.00
2022-12-16T20:51:26.768Z,44.43
2022-12-16T20:54:12.894Z,43.33
2022-12-16T20:56:58.685Z,36.40
2022-12-16T20:59:44.838Z,40.40
2022-12-16T21:02:33.560Z,48.27
2022-12-16T21:05:37.609Z,56.73
2022-12-16T21:08:23.713Z,49.80
2022-12-16T21:11:09.886Z,47.17
2022-12-16T21:13:56.393Z,45.63
2022-12-16T21:16:42.680Z,44.67
2022-12-16T21:19:36.250Z,50.30
2022-12-16T21:22:22.306Z,47.43
2022-12-16T21:25:08.491Z,46.03
2022-12-16T21:27:54.190Z,53.03
2022-12-16T21:30:41.528Z,51.83
2022-12-16T21:33:34.990Z,41.30
2022-12-16T21:36:20.894Z,47.80
2022-12-16T21:39:06.914Z,49.93
2022-12-16T21:41:52.900Z,49.10
2022-12-16T21:44:41.941Z,60.80
2022-12-16T21:47:27.917Z,57.97
2022-12-16T21:50:14.025Z,59.67
2022-12-16T21:53:01.245Z,50.10
2022-12-16T21:55:47.077Z,53.67
2022-12-16T21:58:32.987Z,57.90
2022-12-16T22:01:18.555Z,59.83
2022-12-16T22:04:04.548Z,53.57
2022-12-16T22:06:50.454Z,58.03
2022-12-16T22:09:36.830Z,62.30
2022-12-16T22:12:22.935Z,59.30
2022-12-16T22:15:19.566Z,56.13
2022-12-16T22:18:05.549Z,50.20
2022-12-16T22:20:51.873Z,47.73
2022-12-16T22:23:38.037Z,55.97
2022-12-16T22:26:24.304Z,53.67
2022-12-16T22:29:12.912Z,58.10
2022-12-16T22:31:58.963Z,53.93
2022-12-16T22:34:44.984Z,55.63
2022-12-16T22:36:20.562Z,60.33
2022-12-16T22:37:30.840Z,44.07
2022-12-16T22:40:16.753Z,48.47
2022-12-16T22:43:02.671Z,53.67
2022-12-16T22:45:48.586Z,48.53
2022-12-16T22:48:34.360Z,52.13
2022-12-16T22:51:20.365Z,51.17
2022-12-16T22:54:07.728Z,51.50
2022-12-16T22:56:56.300Z,48.07
2022-12-16T22:59:42.380Z,52.67
2022-12-16T23:02:28.412Z,53.17
2022-12-16T23:05:14.564Z,42.40
2022-12-16T23:08:00.780Z,45.13
2022-12-16T23:10:46.511Z,45.67
2022-12-16T23:13:32.705Z,44.97
2022-12-16T23:16:18.529Z,50.67
2022-12-16T23:19:04.234Z,48.47
2022-12-16T23:21:50.366Z,49.67
2022-12-16T23:24:36.186Z,50.03
2022-12-16T23:27:22.159Z,48.97
2022-12-16T23:30:08.044Z,49.33
2022-12-16T23:32:53.897Z,50.17
2022-12-16T23:35:39.945Z,49.07
2022-12-16T23:38:26.238Z,51.80
2022-12-16T23:41:15.591Z,47.03
2022-12-16T23:44:01.491Z,48.17
2022-12-16T23:46:47.526Z,52.23
2022-12-16T23:49:33.223Z,46.80
2022-12-16T23:52:19.109Z,50.87
2022-12-16T23:55:05.070Z,48.47
2022-12-16T23:57:50.791Z,54.07
